Tiempo atmosférico en la estación meteorológica de Málaga, Centro Meteorológico, Málaga (60 m.)



Fecha
DESCASC
Temp. máxima en grados centígrados (hora)
DESCASC
Temp. mínima en grados centígrados (hora)
DESCASC
Temp. media en grados centígrados
DESCASC
Racha de viento máxima en m/sg (hora)
DESCASC
Velocidad máxima media en intervalos de 10 minutos(hora)
DESCASC
Precipitaciones diarias en mm
DESCASC
Precipitaciones de 00:00 a 06:00 en mm
DESCASC
Precipitaciones de 06:00 a 12:00 en mm
DESCASC
Precipitaciones de 12:00 a 18:00 en mm
DESCASC
Precipitaciones de 18:00 a 24:00 en mm
DESCASC
08-12-2019 21.9 (15:30) 9.5 (06:20) 15.7 7.5 (14:00) 4.17 (13:30) 0 0 0 0 0
07-12-2019 21.6 (13:50) 11.9 (23:59) 16.8 6.11 (15:10) 4.17 (15:00) 0 0 0 0 0
06-12-2019 21.6 (15:10) 9.8 (07:40) 15.7 5.28 (17:10) 3.89 (09:40) 0 0 0 0 0
05-12-2019 18.2 (12:20) 10.8 (00:00) 14.5 8.33 (14:00) 5.28 (14:00) 0 0 0 0 0
04-12-2019 -- (--) -- (--) -- -- (--) -- (--) 0.1 0.1 0 0 0
03-12-2019 19.1 (14:50) 12.4 (00:00) 15.8 7.22 (00:40) 4.72 (17:00) 6.3 6.1 0.1 0.1 0
02-12-2019 16.5 (12:10) 11.7 (00:00) 14.1 9.72 (23:40) 5.56 (13:40) 2.8 0 2.1 0 0.7
01-12-2019 21.5 (14:30) 12.6 (00:00) 17.1 8.06 (11:20) 4.72 (15:10) 1.2 0 0 0 1.2
30-11-2019 20.8 (13:50) 10.8 (00:00) 15.8 5 (23:10) 3.33 (23:40) 0 0 0 0 0
29-11-2019 25 (15:00) 14.4 (00:00) 19.7 9.72 (09:00) 6.67 (11:30) 0 0 0 0 0
28-11-2019 23.4 (15:10) 14.5 (00:00) 18.9 9.17 (13:00) 5.28 (12:50) 0 0 0 0 0
27-11-2019 22.8 (15:10) 14.1 (00:00) 18.4 8.61 (14:20) 3.61 (14:50) 0 0 0 0 0
26-11-2019 25 (15:30) 15.7 (00:00) 20.3 7.5 (12:30) 4.17 (12:40) 0 0 0 0 0
25-11-2019 22.3 (14:10) 12.7 (00:00) 17.5 9.44 (02:10) 4.72 (02:40) 0 0 0 0 0
24-11-2019 18.5 (15:50) 10.4 (00:00) 14.4 10.28 (12:10) 5.83 (12:10) 0 0 0 0 0
23-11-2019 17.4 (13:30) 14 (00:00) 15.7 16.67 (05:30) 8.89 (06:10) 0 0 0 0 0
22-11-2019 16.9 (17:20) 13.3 (00:00) 15.1 14.17 (22:20) 4.44 (22:10) 22.5 1.4 9.7 4.2 7.2
21-11-2019 14.4 (15:30) 10.2 (00:00) 12.3 3.89 (16:00) 2.78 (16:00) 6.1 0.3 1.8 2.5 1.5
20-11-2019 13.6 (15:30) 7.4 (00:00) 10.5 4.72 (20:00) 3.33 (11:10) 1.3 0 0.2 1.1 0
19-11-2019 20.3 (14:30) 9.2 (00:00) 14.7 6.67 (15:00) 4.17 (15:10) 0 0 0 0 0
18-11-2019 17.5 (15:30) 12.1 (00:00) 14.8 11.67 (08:40) 6.11 (08:20) 0 0 0 0 0
17-11-2019 18.6 (15:50) 9.4 (00:00) 14 6.39 (10:30) 3.61 (09:50) 0 0 0 0 0
16-11-2019 16.9 (15:20) 7.5 (00:00) 12.2 9.17 (11:20) 5.56 (11:20) 0 0 0 0 0
15-11-2019 15.4 (15:50) 9.4 (00:00) 12.4 10 (12:50) 6.11 (12:30) 0 0 0 0 0
14-11-2019 18.6 (00:10) 11 (00:00) 14.8 13.06 (16:40) 6.11 (15:50) 0.7 0 0 0.7 0
13-11-2019 22.3 (13:30) 15.1 (00:00) 18.7 11.67 (19:00) 6.11 (19:10) 0 0 0 0 0
12-11-2019 20.6 (14:40) 14.3 (00:00) 17.5 10.56 (13:30) 5.56 (17:40) 0 0 0 0 0

Gráficas

Temp. máximas Temp. mínimas Temp. medias Precipitaciones Rachas de viento máximas Velocidades máximas media en intervalos de 10 minutos

Datos horarios

Fecha y hora oficial Temperatura (ºC) Velocidad del viento (km/h) Dirección del viento Racha (km/h) Dirección de racha Precipitación (mm) Presión (hPa) Tendencia (hPa) Humedad (%)
2019-12-11 23:00:00 13.7 24 Oeste 39 Noroeste 0 1020.2 0.4 59
2019-12-11 22:00:00 14.7 19 Oeste 41 Oeste 0 1019.7 0.9 61
2019-12-11 21:00:00 15.3 18 Oeste 41 Oeste 0 1020 1.8 59
2019-12-11 20:00:00 16 11 Noroeste 33 Noroeste 0 1019.8 2.3 56
2019-12-11 19:00:00 17 13 Noroeste 30 Noroeste 0 1018.8 1.5 50
2019-12-11 18:00:00 18 11 Noroeste 32 Norte 0 1018.2 0.6 47
2019-12-11 17:00:00 18.9 8 Noroeste 22 Norte 0 1017.5 -0.6 38
2019-12-11 16:00:00 19.8 11 Noroeste 29 Oeste 0 1017.3 -1 29
2019-12-11 15:00:00 19.4 11 Noroeste 30 Noroeste 0 1017.6 -1.1 29
2019-12-11 14:00:00 20.8 12 Noroeste 31 Noroeste 0 1018.1 -1.2 32
2019-12-11 13:00:00 20.7 10 Noroeste 33 Norte 0 1018.3 -0.7 33
2019-12-11 12:00:00 19.7 12 Noroeste 26 Oeste 0 1018.7 0.1 36
2019-12-11 11:00:00 17.9 14 Oeste 23 Noroeste 0 1019.3 1.2 42
2019-12-11 10:00:00 16 15 Oeste 25 Noroeste 0 1019 0.9 42
2019-12-11 09:00:00 15 14 Oeste 27 Noroeste 0 1018.6 0.6 43
2019-12-11 08:00:00 13.8 13 Oeste 25 Oeste 0 1018.1 0 48
2019-12-11 07:00:00 12.2 0 Calma 10 Oeste 0 1018.1 -0.1 53
2019-12-11 06:00:00 12.8 3 Sudoeste 20 Oeste 0 1018 -0.4 50
2019-12-11 05:00:00 13.5 10 Oeste 30 Oeste 0 1018.1 -0.8 45
2019-12-11 04:00:00 15.1 23 Oeste 33 Oeste 0 1018.2 -1 41
2019-12-11 03:00:00 13.7 6 Norte 17 Noroeste 0 1018.4 -1.1 43
2019-12-11 02:00:00 14.7 11 Noroeste 22 Noroeste 0 1018.9 -0.5 43
2019-12-11 01:00:00 13.9 8 Oeste 15 Oeste 0 1019.2 -0.1 46
2019-12-11 00:00:00 14.5 6 Oeste 14 Noroeste 0 1019.5 -0.2 46
2019-12-10 23:00:00 14.3 7 Noroeste 16 Noroeste 0 1019.4 -0.3 50
2019-12-10 22:00:00 14.7 10 Noroeste 15 Noroeste 0 1019.3 0.1 53
2019-12-10 21:00:00 13.9 5 Noroeste 10 Noroeste 0 1019.7 0.7 73
2019-12-10 20:00:00 14.5 0 Calma 5 Este 0 1019.7 0.8 76
2019-12-10 19:00:00 15.6 0 Calma 9 Sudeste 0 1019.2 0.4 73
2019-12-10 18:00:00 17.5 6 Sudeste 13 Este 0 1019 0 60
2019-12-10 17:00:00 18.4 7 Este 15 Este 0 1018.9 -- 51
2019-12-10 16:00:00 19.9 9 Sudeste 14 Sudeste 0 1018.8 -2.8 50
2019-12-10 15:00:00 22.1 5 Sudoeste 12 Sudoeste 0 1019 -3.6 36
2019-12-10 14:00:00 -- -- -- -- -- -- -- -- --
2019-12-10 13:00:00 20.3 6 Sudoeste 10 Oeste 0 1021.6 -0.3 47
2019-12-10 12:00:00 18 3 Sudoeste 9 Sudoeste 0 1022.6 0.8 53
2019-12-10 11:00:00 15.9 6 Sudoeste 10 Sudoeste 0 1022.4 0.7 60
2019-12-10 10:00:00 13.2 4 Noroeste 12 Noroeste 0 1021.9 0.5 68
2019-12-10 09:00:00 11.2 6 Noroeste 12 Noroeste 0 1021.8 0.4 77
2019-12-10 08:00:00 11.5 6 Noroeste 17 Noroeste 0 1021.7 0.1 77
2019-12-10 07:00:00 11.9 9 Noroeste 15 Noroeste 0 1021.4 -0.3 77
2019-12-10 06:00:00 12.2 9 Noroeste 20 Noroeste 0 1021.4 -0.5 76
2019-12-10 05:00:00 13.2 12 Oeste 18 Oeste 0 1021.6 -0.3 74
2019-12-10 04:00:00 13.4 7 Noroeste 13 Oeste 0 1021.7 -0.5 76
2019-12-10 03:00:00 13.7 5 Noroeste 14 Noroeste 0 1021.9 -0.1 74
2019-12-10 02:00:00 14.7 12 Noroeste 20 Noroeste 0 1021.9 -0.3 71
2019-12-10 01:00:00 15.1 12 Noroeste 19 Oeste 0 1022.2 0.1 71
2019-12-10 00:00:00 15.5 13 Noroeste 19 Oeste 0 1022 0.1 71
2019-12-09 23:00:00 15.4 11 Oeste 21 Noroeste 0 1022.2 0.5 73
2019-12-09 22:00:00 15.3 13 Oeste 24 Oeste 0 1022.1 0.8 74
2019-12-09 21:00:00 15 14 Oeste 25 Oeste 0 1021.9 1.3 73
2019-12-09 20:00:00 15.6 16 Oeste 26 Oeste 0 1021.7 1.4 70
2019-12-09 19:00:00 16.7 14 Oeste 22 Oeste 0 1021.3 1.1 65
2019-12-09 18:00:00 19.2 14 Oeste 26 Oeste 0 1020.6 0 56
2019-12-09 17:00:00 20.4 19 Oeste 28 Oeste 0 1020.3 -0.7 55
2019-12-09 16:00:00 20.7 16 Sudoeste 24 Oeste 0 1020.2 -2 53
2019-12-09 15:00:00 20.5 21 Oeste 29 Oeste 0 1020.6 -2.1 53
2019-12-09 14:00:00 21.3 20 Oeste 33 Oeste 0 1021 -1.7 53
2019-12-09 13:00:00 18.8 18 Oeste 31 Oeste 0 1022.2 -0.4 61
2019-12-09 12:00:00 18.3 19 Oeste 32 Oeste 0 1022.7 0.8 64
2019-12-09 11:00:00 17.7 15 Oeste 30 Noroeste 0 1022.7 1.3 70
2019-12-09 10:00:00 16.2 13 Oeste 32 Oeste 0 1022.6 1.4 76
2019-12-09 09:00:00 14.5 16 Oeste 31 Oeste 0 1021.9 1 82
2019-12-09 08:00:00 14.3 23 Oeste 36 Oeste 0 1021.4 0.7 82
2019-12-09 07:00:00 14.2 15 Oeste 29 Oeste 0 1021.2 0.3 80
2019-12-09 06:00:00 14.8 13 Oeste 34 Oeste 0 1020.9 -0.1 77
2019-12-09 05:00:00 15.3 21 Oeste 32 Oeste 0 1020.7 -0.7 73
2019-12-09 04:00:00 15.4 14 Oeste 27 Noroeste 0 1020.9 -0.1 70
2019-12-09 03:00:00 15.9 14 Oeste 22 Oeste 0 1021 0.1 62
2019-12-09 02:00:00 16.1 13 Oeste 30 Noroeste 0 1021.4 0.9 59
2019-12-09 01:00:00 16.5 13 Noroeste 29 Noroeste 0 1021 0.3 56
2019-12-09 00:00:00 16.4 7 Noroeste 23 Oeste 0 1020.9 0.4 56
2019-12-08 23:00:00 16.6 13 Oeste 23 Oeste 0 1020.5 0.1 56
2019-12-08 22:00:00 16.7 9 Noroeste 20 Oeste 0 1020.7 1.3 55
2019-12-08 21:00:00 17 11 Oeste 23 Oeste 0 1020.5 1.7 52
2019-12-08 20:00:00 18 8 Oeste 22 Oeste 0 1020.4 1.9 46
2019-12-08 19:00:00 18.7 12 Noroeste 24 Oeste 0 1019.4 1.2 44
2019-12-08 18:00:00 19.9 13 Noroeste 26 Noroeste 0 1018.8 0.3 40
2019-12-08 17:00:00 21 12 Noroeste 25 Oeste 0 1018.5 -0.7 40
2019-12-08 16:00:00 21.6 14 Oeste 24 Noroeste 0 1018.2 -2.1 35
2019-12-08 15:00:00 21.6 12 Noroeste 27 Oeste 0 1018.5 -2.9 38
2019-12-08 14:00:00 21.2 14 Oeste 27 Oeste 0 1019.2 -2.2 46
2019-12-08 13:00:00 20.2 12 Oeste 20 Oeste 0 1020.3 -0.8 52
2019-12-08 12:00:00 16.9 10 Oeste 16 Oeste 0 1021.4 0.5 58
2019-12-08 11:00:00 15.5 7 Sudoeste 15 Noroeste 0 1021.4 0.8 68
2019-12-08 10:00:00 12.6 5 Oeste 12 Oeste 0 1021.1 1 77
2019-12-08 09:00:00 10.2 7 Oeste 15 Oeste 0 1020.9 0.8 86
2019-12-08 08:00:00 10.2 9 Oeste 15 Noroeste 0 1020.6 0.4 88
2019-12-08 07:00:00 10.8 8 Noroeste 14 Noroeste 0 1020.1 -0.5 91
2019-12-08 06:00:00 10 5 Oeste 11 Noroeste 0 1020.1 -0.6 91
2019-12-08 05:00:00 10.8 6 Noroeste 10 Noroeste 0 1020.2 -0.5 92
2019-12-08 04:00:00 11 3 Noroeste 10 Noroeste 0 1020.6 -0.3 92
2019-12-08 03:00:00 10.9 6 Noroeste 12 Oeste 0 1020.7 -0.1 92
2019-12-08 02:00:00 11.5 9 Noroeste 16 Noroeste 0 1020.7 0.1 92
2019-12-08 01:00:00 11.4 0 Calma 5 Oeste 0 1020.9 0.9 92
2019-12-08 00:00:00 11.9 0 Calma 5 Oeste 0 1020.8 1.2 91
2019-12-07 23:00:00 13 2 Oeste 6 Oeste 0 1020.6 1.6 89
2019-12-07 22:00:00 13.8 5 Nordeste 8 Este 0 1020 1.6 88
2019-12-07 21:00:00 14.4 4 Este 12 Este 0 1019.6 1.8 88
2019-12-07 20:00:00 15 7 Este 14 Este 0 1019 2.1 86
2019-12-07 19:00:00 15.6 7 Este 17 Este 0 1018.4 1.9 77
2019-12-07 18:00:00 16.5 10 Este 19 Sudeste 0 1017.8 1.1 64
2019-12-07 17:00:00 18.5 13 Sur 21 Sudeste 0 1016.9 -0.2 56
2019-12-07 16:00:00 20.1 11 Sur 22 Sur 0 1016.5 -1.4 58
2019-12-07 15:00:00 20.6 15 Sur 21 Sur 0 1016.7 -1.5 53
2019-12-07 14:00:00 21.1 13 Sur 20 Sur 0 1017.1 -1 46
2019-12-07 13:00:00 21.2 7 Sudoeste 11 Sudoeste 0 1017.9 0.2 47
2019-12-07 12:00:00 18.7 6 Oeste 13 Oeste 0 1018.2 1 59
2019-12-07 11:00:00 15.6 9 Oeste 15 Oeste 0 1018.1 1.5 74
2019-12-07 10:00:00 13.8 9 Oeste 14 Oeste 0 1017.7 1.5 85
2019-12-07 09:00:00 13.6 8 Noroeste 13 Oeste 0 1017.2 1.1 85
2019-12-07 08:00:00 13.7 10 Noroeste 17 Noroeste 0 1016.6 0.4 85
2019-12-07 07:00:00 14 10 Oeste 16 Oeste 0 1016.2 -0.1 85
2019-12-07 06:00:00 13.9 10 Oeste 15 Oeste 0 1016.1 -0.1 86
2019-12-07 05:00:00 13.3 9 Oeste 15 Oeste 0 1016.2 -0.3 86
2019-12-07 04:00:00 13.9 9 Oeste 13 Oeste 0 1016.3 -0.3 83
2019-12-07 03:00:00 14.4 4 Noroeste 9 Noroeste 0 1016.2 -0.2 85
2019-12-07 02:00:00 14.3 4 Noroeste 8 Noroeste 0 1016.5 0.4 86
2019-12-07 01:00:00 14.2 4 Oeste 9 Oeste 0 1016.6 0.7 86
2019-12-07 00:00:00 14.3 3 Noroeste 9 Norte 0 1016.4 0.6 86
2019-12-06 23:00:00 14.1 3 Noroeste 8 Norte 0 1016.1 1 86
2019-12-06 22:00:00 14.3 3 Noroeste 8 Noroeste 0 1015.9 1.5 86
2019-12-06 21:00:00 14.6 3 Noroeste 6 Noroeste 0 1015.8 2 86
2019-12-06 20:00:00 15.2 0 Calma 3 Sur 0 1015.1 1.8 83
2019-12-06 19:00:00 15.9 3 Sur 9 Sur 0 1014.4 1.6 79
2019-12-06 18:00:00 17.3 5 Sur 19 Sudeste 0 1013.8 1.3 70
2019-12-06 17:00:00 18.1 8 Sudeste 17 Sudeste 0 1013.3 0 58
2019-12-06 16:00:00 19.1 9 Sudeste 15 Sudeste 0 1012.8 -1.4 46
2019-12-06 15:00:00 21.3 6 Sudoeste 12 Sur 0 1012.5 -2.5 45
2019-12-06 14:00:00 21 6 Sudoeste 12 Sudoeste 0 1013.3 -1.8 47
2019-12-06 13:00:00 19.9 8 Oeste 12 Sudoeste 0 1014.2 -0.3 52
2019-12-06 12:00:00 18 8 Oeste 12 Oeste 0 1015 1.2 61
2019-12-06 11:00:00 14.2 9 Oeste 19 Oeste 0 1015.1 2.1 76
2019-12-06 10:00:00 11.1 12 Oeste 18 Oeste 0 1014.5 1.9 88
2019-12-06 09:00:00 10.4 12 Oeste 15 Sudoeste 0 1013.8 1.6 79
2019-12-06 08:00:00 10.7 6 Noroeste 11 Noroeste 0 1013 1.1 86
2019-12-06 07:00:00 10.2 6 Oeste 12 Oeste 0 1012.6 0.7 91
2019-12-06 06:00:00 11.2 7 Oeste 15 Noroeste 0 1012.2 0.8 89
2019-12-06 05:00:00 11.2 6 Oeste 11 Noroeste 0 1011.9 0.7 89
2019-12-06 04:00:00 11.5 6 Oeste 12 Oeste 0 1011.9 0.3 88
2019-12-06 03:00:00 12.4 9 Oeste 14 Oeste 0 1011.4 -0.4 86
2019-12-06 02:00:00 12.6 7 Noroeste 13 Noroeste 0 1011.2 -0.5 86
2019-12-06 01:00:00 13.3 5 Noroeste 14 Noroeste 0 1011.6 0 86
2019-12-06 00:00:00 13.7 6 Noroeste 11 Noroeste 0 1011.8 0.5 86
2019-12-05 23:00:00 14.1 4 Noroeste 9 Norte 0 1011.7 0.8 85
2019-12-05 22:00:00 15.1 0 Calma 8 Sudeste 0 1011.6 1.5 83
2019-12-05 21:00:00 15.3 3 Sudeste 11 Sudeste 0 1011.3 1.6 83
2019-12-05 20:00:00 15.2 6 Sudeste 17 Este 0 1010.9 1.6 85
2019-12-05 19:00:00 15.3 12 Sudeste 21 Este 0 1010.1 1.2 85
2019-12-05 18:00:00 15.4 11 Este 18 Sudeste 0 1009.7 0.7 82
2019-12-05 17:00:00 15.7 10 Sudeste 19 Sudeste 0 1009.3 0.1 80
2019-12-05 16:00:00 15.7 12 Sudeste 19 Este 0 1008.9 -0.5 77
2019-12-05 15:00:00 15.5 12 Sudeste 28 Este 0 1009 -0.8 77
2019-12-05 14:00:00 15.7 19 Este 30 Sudeste 0 1009.2 -0.3 70
2019-12-05 13:00:00 17 15 Sudeste 24 Sudeste 0 1009.4 0.9 56
2019-12-05 12:00:00 17.2 0 Calma 9 Sur 0 1009.8 1.9 56
2019-12-05 11:00:00 13.6 4 Oeste 14 Oeste 0 1009.5 2.2 65
2019-12-05 10:00:00 13.1 6 Oeste 13 Oeste 0 1008.5 1.6 69
2019-12-05 09:00:00 11.2 5 Noroeste 15 Noroeste 0 1007.9 1.6 74
2019-12-05 08:00:00 11.1 6 Oeste 12 Noroeste 0 1007.3 1 74
2019-12-05 07:00:00 10.9 3 Oeste 17 Noroeste 0 1006.9 0.9 74
2019-12-05 06:00:00 11.2 10 Noroeste 15 Oeste 0 1006.3 0.5 73
2019-12-05 05:00:00 11.2 9 Oeste 19 Oeste 0 1006.3 0.5 73
2019-12-05 04:00:00 11.5 10 Oeste 20 Oeste 0 1006 0.2 71
2019-12-05 03:00:00 11.8 10 Oeste 18 Oeste 0 1005.8 0.2 71
2019-12-05 02:00:00 11.6 8 Noroeste 13 Noroeste 0 1005.8 0.4 72
2019-12-05 01:00:00 11.8 8 Oeste 17 Oeste 0 1005.8 0.8 71
2019-12-05 00:00:00 12.2 8 Oeste 16 Oeste 0 1005.6 1.3 71
2019-12-04 23:00:00 12.8 8 Oeste 17 Oeste 0 1005.4 1.5 68
2019-12-04 22:00:00 13.7 7 Noroeste 15 Noroeste 0 1005 2.1 62
2019-12-04 21:00:00 14 7 Oeste 15 Oeste 0 1004.3 1.9 59
2019-12-04 20:00:00 14.9 11 Oeste 18 Oeste 0 1003.9 2.1 55
2019-12-04 19:00:00 15.5 5 Noroeste 17 Norte 0 1002.9 1.3 52
2019-12-04 18:00:00 16.6 5 Noroeste 16 Noroeste 0 1002.4 0.6 49
2019-12-04 17:00:00 17.8 5 Noroeste 24 Norte 0 1001.8 -- 44
2019-12-04 16:00:00 18.5 9 Norte 22 Norte 0 1001.6 -1.1 45
2019-12-04 15:00:00 19.2 6 Noroeste -- -- -- 1001.8 -1.8 47
2019-12-04 14:00:00 -- -- -- -- -- -- -- -- --
2019-12-04 13:00:00 18.3 8 Noroeste 28 Oeste 0 1002.7 -1.4 50
2019-12-04 12:00:00 17.9 9 Noroeste 22 Noroeste 0 1003.6 0 55
2019-12-04 11:00:00 17 7 Noroeste 20 Norte 0 1004.1 0.7 56
2019-12-04 10:00:00 15.4 9 Noroeste 20 Norte 0 1004.1 1 61
2019-12-04 09:00:00 14.1 5 Noroeste 22 Oeste 0 1003.6 0.4 70
2019-12-04 08:00:00 13.1 12 Oeste 21 Oeste 0 1003.4 -0.2 76
2019-12-04 07:00:00 12.1 6 Noroeste 17 Oeste 0 1003.1 -1 86
2019-12-04 06:00:00 11.6 6 Oeste 14 Oeste 0 1003.2 -1.6 85
2019-12-04 05:00:00 12.8 8 Oeste 15 Oeste 0 1003.6 -1.6 80
2019-12-04 04:00:00 12.9 10 Oeste 15 Oeste 0.1 1004.1 -1.1 82
2019-12-04 03:00:00 14.2 0 Calma 10 Noroeste 0 1004.8 -0.6 67
2019-12-04 02:00:00 14.4 5 Noroeste 13 Oeste 0 1005.2 0 64
2019-12-04 01:00:00 14.1 5 Noroeste 11 Oeste 0 1005.2 0.3 64
2019-12-04 00:00:00 14.3 4 Oeste 12 Noroeste 0 1005.4 0.5 62
2019-12-03 23:00:00 14 4 Noroeste 10 Noroeste 0 1005.2 1 67
2019-12-03 22:00:00 14.4 8 Noroeste 12 Noroeste 0 1004.9 1 71
2019-12-03 21:00:00 14.1 3 Sudoeste 10 Oeste 0 1004.9 1.5 72
2019-12-03 20:00:00 15.2 4 Oeste 13 Noroeste 0 1004.2 1.3 65
2019-12-03 19:00:00 16 10 Oeste 17 Noroeste 0 1003.9 1.2 61
2019-12-03 18:00:00 17 7 Oeste 24 Oeste 0 1003.4 0.7 58
2019-12-03 17:00:00 17.8 17 Oeste 23 Oeste 0 1002.9 -0.6 53
2019-12-03 16:00:00 18.5 12 Oeste 20 Oeste 0 1002.7 -1.6 50
2019-12-03 15:00:00 18.6 9 Oeste 18 Oeste 0 1002.7 -2.8 52
2019-12-03 14:00:00 17.9 10 Oeste 20 Noroeste 0 1003.5 -1.8 56
2019-12-03 13:00:00 16 5 Noroeste 14 Noroeste 0.1 1004.3 -0.6 74
2019-12-03 12:00:00 14.5 6 Oeste 15 Oeste 0.1 1005.5 1.2 76
2019-12-03 11:00:00 14.2 9 Oeste 16 Oeste 0 1005.3 1.1 76
2019-12-03 10:00:00 13.2 11 Noroeste 19 Noroeste 0 1004.9 0.9 80
2019-12-03 09:00:00 12.7 9 Oeste 19 Oeste 0 1004.3 0.1 88
2019-12-03 08:00:00 12.5 8 Oeste 20 Noroeste 0 1004.2 -0.6 94
2019-12-03 07:00:00 12.6 11 Oeste 21 Noroeste 0 1004 -1.6 95
2019-12-03 06:00:00 12.6 10 Oeste 18 Oeste 0 1004.2 -1.5 95
2019-12-03 05:00:00 12.8 10 Oeste 16 Oeste 0.2 1004.8 -1.6 95
2019-12-03 04:00:00 13.1 7 Noroeste 11 Oeste 0.2 1005.6 -1.5 95
2019-12-03 03:00:00 13.2 4 Norte 14 Norte 0 1005.7 -1.4 95
2019-12-03 02:00:00 13.3 2 Norte 15 Este 3.5 1006.4 -0.4 95
2019-12-03 01:00:00 13.6 7 Este 26 Este 2.2 1007.1 0.3 94
2019-12-03 00:00:00 14.2 12 Sudeste 35 Este 0.7 1007.1 0.6 86
2019-12-02 23:00:00 15.1 9 Este 19 Nordeste 0 1006.8 0.5 79
2019-12-02 22:00:00 14.9 10 Este 20 Este 0 1006.8 1.1 85
2019-12-02 21:00:00 14.9 11 Este 21 Sudeste 0 1006.5 1.5 86
2019-12-02 20:00:00 14.7 12 Sudeste 26 Este 0 1006.3 1.7 86
2019-12-02 19:00:00 14.6 15 Este 27 Sudeste 0 1005.7 1.5 86
2019-12-02 18:00:00 14.8 12 Este 25 Este 0 1005 1 88
2019-12-02 17:00:00 15.3 13 Este 24 Este 0 1004.6 0.2 79
2019-12-02 16:00:00 15.3 12 Este 29 Este 0 1004.2 -0.5 76
2019-12-02 15:00:00 15.2 14 Este 30 Este 0 1004 -1.2 85
2019-12-02 14:00:00 15.4 17 Sudeste 34 Sudeste 0 1004.4 -0.8 82
2019-12-02 13:00:00 16.1 18 Este 31 Este 0 1004.7 -0.1 73
2019-12-02 12:00:00 15.7 11 Sudeste 22 Este 0 1005.2 0.7 68
2019-12-02 11:00:00 15.5 12 Este 23 Este 0 1005.2 1.5 73
2019-12-02 10:00:00 13.3 7 Este 16 Este 0.1 1004.8 1 91
2019-12-02 09:00:00 12.5 8 Este 18 Este 0.1 1004.5 0.9 95
2019-12-02 08:00:00 12.9 9 Este 15 Este 1.9 1003.7 -0.1 95
2019-12-02 07:00:00 12 5 Oeste 11 Oeste 0 1003.8 -0.3 95
2019-12-02 06:00:00 12.6 0 Calma 6 Sudeste 0 1003.6 -0.6 95
2019-12-02 05:00:00 12.8 0 Calma 8 Este 0 1003.8 -0.8 95
2019-12-02 04:00:00 12.1 2 Oeste 7 Este 0 1004.1 -0.9 95
2019-12-02 03:00:00 12.6 2 Oeste 12 Este 0 1004.2 -0.9 95
2019-12-02 02:00:00 12.4 3 Este 9 Nordeste 0 1004.6 -0.8 95
2019-12-02 01:00:00 11.7 0 Calma 8 Oeste 0 1005 -0.5 94
2019-12-02 00:00:00 12.7 0 Calma 6 Nordeste 0 1005.1 -0.5 94
2019-12-01 23:00:00 13.1 0 Calma 3 Este 0 1005.4 -0.2 92
2019-12-01 22:00:00 13.6 0 Calma 4 Oeste 0 1005.5 0.1 89
2019-12-01 21:00:00 14.4 0 Calma 6 Norte 0 1005.6 0.5 86
2019-12-01 20:00:00 15 0 Calma 6 Noroeste 1.1 1005.6 0.4 83
2019-12-01 19:00:00 16.7 3 Este 9 Sudeste 0.1 1005.4 0 67
2019-12-01 18:00:00 17.3 6 Oeste 17 Sudoeste 0 1005.1 -0.8 58
2019-12-01 17:00:00 18.2 9 Sur 23 Sur 0 1005.2 -1.8 50
2019-12-01 16:00:00 20 13 Sur 25 Sur 0 1005.4 -2.5 47
2019-12-01 15:00:00 20.9 14 Sur 24 Sur 0 1005.9 -3.1 48
2019-12-01 14:00:00 20.1 4 Noroeste 21 Norte 0 1007 -2.7 41
2019-12-01 13:00:00 19.5 9 Noroeste 24 Norte 0 1007.9 -1.6 42
2019-12-01 12:00:00 19 8 Noroeste 29 Noroeste 0 1009 -0.4 46
2019-12-01 11:00:00 18.5 6 Noroeste 22 Noroeste 0 1009.7 0.1 52
2019-12-01 10:00:00 17 5 Oeste 15 Noroeste 0 1009.5 0 58
2019-12-01 09:00:00 14.8 7 Noroeste 21 Norte 0 1009.4 -0.3 62
2019-12-01 08:00:00 15.2 9 Noroeste 23 Noroeste 0 1009.6 -0.8 68
2019-12-01 07:00:00 15.7 8 Noroeste 23 Noroeste 0 1009.5 -1.4 67
2019-12-01 06:00:00 15.1 8 Oeste 19 Oeste 0 1009.7 -1.2 76
2019-12-01 05:00:00 15 8 Sudoeste 14 Sudoeste 0 1010.4 -1.1 83
2019-12-01 04:00:00 14.3 4 Oeste 11 Oeste 0 1010.9 -0.9 83
2019-12-01 03:00:00 13.4 7 Oeste 13 Oeste 0 1010.9 -1.9 80
2019-12-01 02:00:00 14.8 8 Oeste 16 Oeste 0 1011.5 -1.5 76
2019-12-01 01:00:00 15.3 9 Oeste 16 Oeste 0 1011.8 -1.5 76
2019-12-01 00:00:00 14.6 7 Oeste 18 Oeste 0 1012.8 -0.8 77
2019-11-30 23:00:00 15.9 10 Oeste 16 Oeste 0 1013 -0.7 73
2019-11-30 22:00:00 14.7 7 Oeste 13 Oeste 0 1013.3 -0.2 77
2019-11-30 21:00:00 15.1 8 Oeste 15 Oeste 0 1013.6 0.4 80
2019-11-30 20:00:00 14.4 8 Oeste 13 Oeste 0 1013.7 0.5 88
2019-11-30 19:00:00 15.3 0 Calma 10 Este 0 1013.5 -0.2 85
2019-11-30 18:00:00 16 6 Este 10 Este 0 1013.2 -0.8 79
2019-11-30 17:00:00 17.3 8 Sudeste 14 Este 0 1013.2 -1.8 70
2019-11-30 16:00:00 18.5 7 Este 14 Sudeste 0 1013.7 -2.2 67
2019-11-30 15:00:00 18.8 10 Sudeste 14 Sudeste 0 1014 -2.9 64
2019-11-30 14:00:00 20.3 6 Sudeste 13 Sudeste 0 1015 -2.1 55
2019-11-30 13:00:00 19.5 5 Sudeste 15 Este 0 1015.9 -1.1 55
2019-11-30 12:00:00 19.2 7 Sudeste 13 Este 0 1016.9 0.2 55
2019-11-30 11:00:00 17.6 3 Sudoeste 9 Sudoeste 0 1017.1 0.7 65
2019-11-30 10:00:00 14.6 5 Oeste 10 Noroeste 0 1017 1.1 71
2019-11-30 09:00:00 13.3 4 Noroeste 13 Noroeste 0 1016.7 1.1 73
2019-11-30 08:00:00 10.8 2 Noroeste 14 Oeste 0 1016.4 0.5 83
2019-11-30 07:00:00 12.9 5 Noroeste 9 Noroeste 0 1015.9 0 68
2019-11-30 06:00:00 12.7 6 Noroeste 11 Noroeste 0 1015.6 -0.5 76
2019-11-30 05:00:00 12.8 6 Oeste 12 Noroeste 0 1015.9 -0.2 77
2019-11-30 04:00:00 13.5 5 Noroeste 12 Noroeste 0 1015.9 -0.4 76
2019-11-30 03:00:00 13.5 7 Noroeste 12 Noroeste 0 1016.1 -0.3 77
2019-11-30 02:00:00 13.4 4 Noroeste 10 Noroeste 0 1016.1 -0.2 89
2019-11-30 01:00:00 13.7 2 Noroeste 6 Noroeste 0 1016.3 0.3 91
2019-11-30 00:00:00 14.5 0 Calma 9 Sur 0 1016.4 0.7 88
2019-11-29 23:00:00 15.1 0 Calma 6 Noroeste 0 1016.3 0.9 74
2019-11-29 22:00:00 15.7 3 Noroeste 11 Noroeste 0 1016 0.6 73
2019-11-29 21:00:00 16.1 5 Noroeste 15 Noroeste 0 1015.7 0.9 73
2019-11-29 20:00:00 15.9 9 Oeste 16 Noroeste 0 1015.4 0.8 80
2019-11-29 19:00:00 15.6 0 Calma 10 Sudeste 0 1015.4 1.3 79
2019-11-29 18:00:00 17.1 3 Sudeste 9 Sur 0 1014.8 1.2 71
2019-11-29 17:00:00 18 7 Este 14 Este 0 1014.6 0.5 67
2019-11-29 16:00:00 18.9 10 Este 18 Sudeste 0 1014.1 -0.6 61
2019-11-29 15:00:00 24.6 14 Sudoeste 27 Oeste 0 1013.6 -1.8 40
2019-11-29 14:00:00 24 17 Oeste 30 Oeste 0 1014.1 -1.6 43
2019-11-29 13:00:00 22.8 20 Oeste 32 Sudoeste 0 1014.7 -0.6 46
2019-11-29 12:00:00 21.5 17 Oeste 34 Oeste 0 1015.4 0.5 50
2019-11-29 11:00:00 19.2 18 Oeste 33 Oeste 0 1015.7 1.2 56
2019-11-29 10:00:00 17 19 Oeste 33 Oeste 0 1015.3 1.2 61
2019-11-29 09:00:00 15.6 22 Oeste 35 Oeste 0 1014.9 1.1 64
2019-11-29 08:00:00 14.8 17 Oeste 33 Oeste 0 1014.5 0.7 65
2019-11-29 07:00:00 15.3 17 Oeste 33 Oeste 0 1014.1 0.5 64
2019-11-29 06:00:00 15.1 15 Oeste 28 Oeste 0 1013.8 0.1 67
2019-11-29 05:00:00 14.7 19 Oeste 31 Oeste 0 1013.8 0 68
2019-11-29 04:00:00 15.2 18 Oeste 33 Noroeste 0 1013.6 -0.2 68
2019-11-29 03:00:00 15 17 Oeste 32 Oeste 0 1013.7 -0.4 70
2019-11-29 02:00:00 15.3 15 Oeste 30 Oeste 0 1013.8 -0.3 70
2019-11-29 01:00:00 15.5 16 Oeste 29 Oeste 0 1013.8 0 70
2019-11-29 00:00:00 15.4 14 Oeste 22 Oeste 0 1014.1 0.4 70
2019-11-28 23:00:00 15.4 11 Oeste 18 Oeste 0 1014.1 0.9 68
2019-11-28 22:00:00 16.9 11 Oeste 24 Oeste 0 1013.8 1.2 61
2019-11-28 21:00:00 16.5 6 Oeste 17 Noroeste 0 1013.7 1.6 61
2019-11-28 20:00:00 17.3 6 Oeste 19 Norte 0 1013.2 1.4 58
2019-11-28 19:00:00 18.2 9 Norte 19 Noroeste 0 1012.6 1.2 55
2019-11-28 18:00:00 19.7 7 Noroeste 23 Oeste 0 1012.1 0.6 52
2019-11-28 17:00:00 21.1 9 Noroeste 22 Oeste 0 1011.8 -0.5 47
2019-11-28 16:00:00 21.9 12 Noroeste 24 Oeste 0 1011.4 -1.5 45
2019-11-28 15:00:00 23.3 15 Oeste 26 Oeste 0 1011.5 -2.2 44
2019-11-28 14:00:00 22.3 15 Oeste 27 Oeste 0 1012.3 -1.7 45
2019-11-28 13:00:00 21.7 18 Oeste 33 Oeste 0 1012.9 -1.1 47
2019-11-28 12:00:00 20.6 11 Oeste 26 Oeste 0 1013.7 0.5 50
2019-11-28 11:00:00 19.3 15 Oeste 27 Oeste 0 1014 1.3 55
2019-11-28 10:00:00 17.2 15 Oeste 24 Noroeste 0 1014 1.6 67
2019-11-28 09:00:00 15.1 12 Oeste 27 Oeste 0 1013.2 1.3 76
2019-11-28 08:00:00 14.9 10 Oeste 31 Noroeste 0 1012.7 0.7 74
2019-11-28 07:00:00 14.7 14 Oeste 30 Oeste 0 1012.4 0.4 77
2019-11-28 06:00:00 15 15 Oeste 29 Noroeste 0 1011.9 0 77
2019-11-28 05:00:00 14.9 13 Oeste 28 Noroeste 0 1012 0.1 77
2019-11-28 04:00:00 15.3 12 Noroeste 23 Noroeste 0 1012 -0.2 76
2019-11-28 03:00:00 15.4 13 Noroeste 19 Oeste 0 1011.9 -0.3 76
2019-11-28 02:00:00 15.8 10 Oeste 24 Noroeste 0 1011.9 -0.2 74
2019-11-28 01:00:00 16.7 13 Oeste 23 Noroeste 0 1012.2 0.5 71
2019-11-28 00:00:00 17.1 7 Oeste 19 Oeste 0 1012.2 1 68
2019-11-27 23:00:00 17.7 6 Noroeste 17 Noroeste 0 1012.1 1.2 65
2019-11-27 22:00:00 17.6 4 Noroeste 19 Noroeste 0 1011.7 2 65
2019-11-27 21:00:00 17.2 5 Oeste 14 Oeste 0 1011.2 1.9 64
2019-11-27 20:00:00 18.1 4 Noroeste 15 Noroeste 0 1010.9 1.9 58
2019-11-27 19:00:00 18.8 6 Norte 23 Norte 0 1009.7 1.3 55
2019-11-27 18:00:00 19.6 8 Norte 23 Noroeste 0 1009.3 0.5 52
2019-11-27 17:00:00 20.5 7 Noroeste 23 Norte 0 1009 -0.5 49
2019-11-27 16:00:00 22.4 10 Noroeste 28 Norte 0 1008.4 -1.7 45
2019-11-27 15:00:00 22.5 10 Noroeste 31 Noroeste 0 1008.8 -1.9 44
2019-11-27 14:00:00 22.2 11 Noroeste 28 Noroeste 0 1009.5 -1.3 46
2019-11-27 06:00:00 14.2 8 Oeste 12 Sudoeste 0 1008.8 -0.2 88
2019-11-27 05:00:00 14.7 6 Oeste 10 Oeste 0 1008.8 -0.4 83
2019-11-27 04:00:00 14.6 2 Noroeste 10 Sudoeste 0 1008.9 -0.7 83
2019-11-27 03:00:00 15.2 4 Noroeste 9 Noroeste 0 1009 -0.6 82
2019-11-27 02:00:00 15.2 5 Noroeste 9 Oeste 0 1009.2 -0.4 82
2019-11-27 01:00:00 16.3 6 Oeste 11 Noroeste 0 1009.6 0 76
2019-11-27 00:00:00 15.8 4 Oeste 10 Oeste 0 1009.6 0.2 77
2019-11-26 23:00:00 17.6 3 Noroeste 13 Norte 0 1009.6 0.4 67
2019-11-26 22:00:00 17.1 4 Oeste 11 Oeste 0 1009.6 1.2 68
2019-11-26 21:00:00 18.1 7 Oeste 12 Oeste 0 1009.4 1.2 65
2019-11-26 20:00:00 19.2 8 Oeste 19 Noroeste 0 1009.2 1.3 62
2019-11-26 19:00:00 20.4 5 Noroeste 15 Norte 0 1008.4 0.7 62
2019-11-26 18:00:00 21.4 6 Norte 19 Norte 0 1008.2 0.1 59
2019-11-26 17:00:00 22.7 6 Noroeste 20 Norte 0 1007.9 -1.1 53
2019-11-26 16:00:00 24 9 Noroeste 19 Noroeste 0 1007.7 -2.3 50
2019-11-26 15:00:00 24.3 5 Norte 22 Norte 0 1008.1 -2.7 52
2019-11-26 14:00:00 23.4 4 Norte 23 Oeste 0 1009 -2.3 55
2019-11-26 13:00:00 23.1 11 Noroeste 27 Noroeste 0 1010 -1.2 55
2019-11-26 12:00:00 21.9 13 Oeste 27 Oeste 0 1010.8 -0.6 58
2019-11-26 11:00:00 20.1 14 Oeste 23 Noroeste 0 1011.3 0.4 64
2019-11-26 10:00:00 19.8 10 Oeste 19 Noroeste 0 1011.2 0.5 68
2019-11-26 09:00:00 16.9 10 Oeste 19 Noroeste 0 1011.4 0.5 76
2019-11-26 08:00:00 16.9 9 Noroeste 23 Noroeste 0 1010.9 -0.1 74
2019-11-26 07:00:00 17.2 8 Noroeste 21 Noroeste 0 1010.7 -0.8 73
2019-11-26 06:00:00 17.3 8 Noroeste 18 Noroeste 0 1010.9 -0.5 76
2019-11-26 05:00:00 17.3 6 Noroeste 15 Noroeste 0 1011 -0.1 77
2019-11-26 04:00:00 17.7 5 Noroeste 14 Noroeste 0 1011.5 -0.2 77
2019-11-26 03:00:00 17.7 3 Noroeste 13 Noroeste 0 1011.4 -0.7 79
2019-11-26 02:00:00 18.6 3 Oeste 23 Noroeste 0 1011.1 -1.2 76
2019-11-26 01:00:00 18.8 12 Noroeste 21 Noroeste 0 1011.7 -0.6 77
2019-11-26 00:00:00 19 7 Oeste 20 Oeste 0 1012.1 0.1 77
2019-11-25 23:00:00 18.5 0 Calma 14 Noroeste 0 1012.3 0.5 79
2019-11-25 22:00:00 18.9 2 Noroeste 22 Noroeste 0 1012.3 0.7 74
2019-11-25 21:00:00 19.7 8 Noroeste 24 Noroeste 0 1012 0.7 71
2019-11-25 20:00:00 19.5 5 Noroeste 15 Noroeste 0 1011.8 0.7 70
2019-11-25 19:00:00 19.6 5 Noroeste 17 Noroeste 0 1011.6 0.6 67
2019-11-25 18:00:00 20.5 6 Noroeste 26 Norte 0 1011.3 0 64
2019-11-25 17:00:00 20.9 9 Noroeste 26 Noroeste 0 1011.1 -0.4 61
2019-11-25 16:00:00 21.4 9 Noroeste 24 Noroeste 0 1011 -1.1 59
2019-11-25 15:00:00 21.6 6 Noroeste 24 Noroeste 0 1011.3 -1.8 58
2019-11-25 14:00:00 22.1 8 Noroeste 22 Noroeste 0 1011.5 -1.8 56
2019-11-25 13:00:00 21.7 8 Oeste 22 Oeste 0 1012.1 -1.1 59
2019-11-25 12:00:00 19.8 5 Noroeste 23 Oeste 0 1013.1 -0.1 62
2019-11-25 11:00:00 19.7 6 Noroeste 23 Noroeste 0 1013.3 0.8 64
2019-11-25 10:00:00 17.8 8 Noroeste 18 Norte 0 1013.2 0.5 70
2019-11-25 09:00:00 15.4 6 Noroeste 14 Noroeste 0 1013.2 0.7 74
2019-11-25 08:00:00 15.3 9 Noroeste 27 Noroeste 0 1012.5 0.1 73
2019-11-25 07:00:00 15.2 8 Noroeste 23 Noroeste 0 1012.7 0.4 70
2019-11-25 06:00:00 15 8 Noroeste 26 Noroeste 0 1012.5 -0.1 68
2019-11-25 05:00:00 13.7 10 Oeste 28 Oeste 0 1012.4 -0.3 71
2019-11-25 04:00:00 14 8 Oeste 27 Noroeste 0 1012.3 -0.9 70
2019-11-25 03:00:00 14.4 10 Noroeste 34 Noroeste 0 1012.6 -0.7 68
2019-11-25 02:00:00 14.2 16 Oeste 28 Oeste 0 1012.7 -0.6 67
2019-11-25 01:00:00 13.2 9 Sudoeste 23 Oeste 0 1013.2 0 67
2019-11-25 00:00:00 14.2 13 Oeste 28 Oeste 0 1013.3 -0.1 62
2019-11-24 23:00:00 14.3 9 Oeste 22 Noroeste 0 1013.3 0.3 61
2019-11-24 22:00:00 14.1 10 Noroeste 17 Noroeste 0 1013.2 1.1 61
2019-11-24 21:00:00 13.8 7 Oeste 23 Oeste 0 1013.4 1.6 58
2019-11-24 20:00:00 14.7 10 Oeste 29 Oeste 0 1013 1.6 55
2019-11-24 19:00:00 15.2 10 Noroeste 27 Noroeste 0 1012.1 0.7 52
2019-11-24 18:00:00 16 6 Noroeste 23 Noroeste 0 1011.8 0.4 49
2019-11-24 17:00:00 17.2 10 Noroeste 32 Noroeste 0 1011.4 -0.4 43
2019-11-24 16:00:00 18 8 Noroeste 26 Oeste 0 1011.4 -1 43
2019-11-24 15:00:00 17.8 11 Noroeste 33 Noroeste 0 1011.4 -1.6 43
2019-11-24 14:00:00 17.1 12 Noroeste 36 Oeste 0 1011.8 -1.6 47
2019-11-24 13:00:00 16.2 13 Oeste 37 Oeste 0 1012.4 -1 49
2019-11-24 12:00:00 16 18 Noroeste 35 Noroeste 0 1013 -0.1 50
2019-11-24 11:00:00 15.3 8 Noroeste 22 Noroeste 0 1013.4 1 55
2019-11-24 10:00:00 13.7 13 Oeste 26 Noroeste 0 1013.4 2 59
2019-11-24 09:00:00 12.6 8 Noroeste 19 Noroeste 0 1013.1 2.1 65
2019-11-24 08:00:00 10.8 3 Oeste 17 Noroeste 0 1012.4 1.6 68
2019-11-24 07:00:00 11.2 5 Noroeste 15 Noroeste 0 1011.4 0.5 68
2019-11-24 06:00:00 11.7 6 Noroeste 17 Noroeste 0 1011 0.8 67
2019-11-24 05:00:00 11.6 5 Noroeste 17 Noroeste 0 1010.8 0.7 67
2019-11-24 04:00:00 11.9 10 Oeste 20 Oeste 0 1010.9 0.5 65
2019-11-24 03:00:00 12.4 6 Noroeste 20 Noroeste 0 1010.2 0 62
2019-11-24 02:00:00 12.8 10 Noroeste 23 Noroeste 0 1010.1 0.1 61
2019-11-24 01:00:00 12.8 9 Noroeste 18 Noroeste 0 1010.4 1 59
2019-11-24 00:00:00 14 9 Noroeste 24 Noroeste 0 1010.2 1.4 55
2019-11-23 23:00:00 14.3 12 Oeste 22 Oeste 0 1010 2.1 53
2019-11-23 22:00:00 14.7 13 Oeste 24 Oeste 0 1009.4 2.8 52
2019-11-23 21:00:00 15 15 Oeste 30 Noroeste 0 1008.8 3.3 52
2019-11-23 20:00:00 15 14 Oeste 29 Oeste 0 1007.9 3 50
2019-11-23 19:00:00 15.5 13 Noroeste 37 Oeste 0 1006.6 2.5 46
2019-11-23 18:00:00 15.9 19 Oeste 45 Noroeste 0 1005.5 1.5 45
2019-11-23 17:00:00 16.4 19 Noroeste 40 Oeste 0 1004.9 0.6 46
2019-11-23 16:00:00 16.5 24 Oeste 38 Oeste 0 1004.1 -0.4 45
2019-11-23 15:00:00 16.7 18 Oeste 36 Noroeste 0 1004 0 45
2019-11-23 14:00:00 16.9 16 Noroeste 33 Noroeste 0 1004.3 1 44
2019-11-23 13:00:00 16.6 13 Noroeste 41 Oeste 0 1004.5 2.6 46
2019-11-23 12:00:00 16.7 17 Noroeste 42 Noroeste 0 1004 3.1 50
2019-11-23 11:00:00 15.3 10 Noroeste 35 Noroeste 0 1003.3 3.3 55
2019-11-23 10:00:00 15.9 12 Noroeste 40 Noroeste 0 1001.9 3.1 56
2019-11-23 09:00:00 14.7 16 Noroeste 46 Noroeste 0 1000.9 3.4 59
2019-11-23 08:00:00 15 26 Noroeste 45 Noroeste 0 1000 3 62
2019-11-23 07:00:00 15 14 Noroeste 57 Noroeste 0 998.8 1.5 60
2019-11-23 06:00:00 16.4 31 Noroeste 60 Noroeste 0 997.5 0.1 49
2019-11-23 05:00:00 16.2 18 Noroeste 42 Oeste 0 997 0.4 52
2019-11-23 04:00:00 16.3 10 Noroeste 26 Noroeste 0 997.3 0.8 52
2019-11-23 03:00:00 16.9 11 Noroeste 26 Oeste 0 997.4 0.9 50
2019-11-23 02:00:00 16.7 10 Noroeste 31 Norte 0 996.6 0.3 58
2019-11-23 01:00:00 16.7 12 Noroeste 39 Norte 0 996.5 0.4 56
2019-11-23 00:00:00 16.6 9 Noroeste 36 Noroeste 0 996.5 0.3 58
2019-11-22 23:00:00 16.8 14 Noroeste 51 Noroeste 0 996.3 1.6 59
2019-11-22 22:00:00 16.2 15 Noroeste 39 Noroeste 3.4 996.1 1.8 77
2019-11-22 21:00:00 16.8 6 Oeste 11 Oeste 3.5 996.2 1.7 97
2019-11-22 20:00:00 16.8 5 Nordeste 19 Nordeste 0.2 994.7 -0.5 97
2019-11-22 19:00:00 16.6 10 Este 18 Este 0.1 994.3 -1.6 97
2019-11-22 18:00:00 16.7 9 Nordeste 19 Este 0 994.5 -2.3 97
2019-11-22 17:00:00 16.6 14 Este 22 Este 0 995.2 -3.1 98
2019-11-22 16:00:00 16.1 8 Nordeste 19 Nordeste 0.1 995.9 -4.1 98
2019-11-22 15:00:00 15.4 9 Nordeste 18 Sudeste 0 996.8 -4.8 98
2019-11-22 14:00:00 15.1 10 Sudeste 18 Este 0.4 998.3 -3.2 98
2019-11-22 13:00:00 14.7 10 Este 19 Este 3.7 1000 -1.5 98
2019-11-22 12:00:00 14.5 13 Sudeste 25 Sudeste 0.2 1001.6 0.1 97
2019-11-22 11:00:00 14.6 10 Este 24 Sudeste 0.3 1001.5 -0.2 98
2019-11-22 10:00:00 14.6 11 Este 19 Sudeste 1.9 1001.5 -0.2 97
2019-11-22 09:00:00 14.5 11 Este 17 Este 5.2 1001.5 -0.8 98
2019-11-22 08:00:00 14.6 7 Este 12 Este 2.1 1001.7 -1.1 98
2019-11-22 07:00:00 14.4 8 Este 14 Nordeste 0 1001.7 -1.5 98
2019-11-22 06:00:00 14.4 8 Este 16 Nordeste 0.1 1002.3 -1.1 98
2019-11-22 05:00:00 14.3 8 Este 13 Este 0.7 1002.8 -0.9 98
2019-11-22 04:00:00 14.1 6 Este 11 Este 0.1 1003.2 -1.3 98
2019-11-22 03:00:00 13.7 0 Calma 5 Norte 0.5 1003.4 -1.5 98
2019-11-22 02:00:00 13.6 3 Norte 5 Norte 0 1003.7 -1.2 98
2019-11-22 01:00:00 13.4 0 Calma 5 Sudoeste 0 1004.5 -0.8 98
2019-11-22 00:00:00 13.7 0 Calma 5 Noroeste 0.1 1004.9 -0.3 98
2019-11-21 23:00:00 14.2 0 Calma 8 Nordeste 0 1004.9 -0.2 98
2019-11-21 22:00:00 14.1 4 Nordeste 9 Este 0 1005.3 0.3 98
2019-11-21 21:00:00 14 5 Este 14 Nordeste 0 1005.2 0.3 97
2019-11-21 20:00:00 13.8 6 Este 14 Este 0 1005.1 0.1 97
2019-11-21 19:00:00 13.7 9 Este 14 Este 1.4 1005 0.2 97
2019-11-21 18:00:00 13.8 8 Este 14 Este 1.2 1004.9 -0.1 97
2019-11-21 17:00:00 14.1 7 Este 13 Este 0.6 1005 -0.6 97
2019-11-21 16:00:00 14 10 Sudeste 14 Sudeste 0 1004.8 -1.6 97
2019-11-21 15:00:00 14.1 8 Este 12 Este 0 1005 -2.2 98
2019-11-21 14:00:00 14 7 Sudeste 11 Este 0.7 1005.6 -1.9 97
2019-11-21 13:00:00 13.7 8 Este 12 Sudeste 0 1006.4 -0.8 98
2019-11-21 12:00:00 13.1 0 Calma 7 Sudoeste 0 1007.2 0.2 98
2019-11-21 11:00:00 12.5 5 Oeste 8 Oeste 0 1007.5 0.7 97
2019-11-21 10:00:00 12 0 Calma 5 Noroeste 0.2 1007.2 0.7 97
2019-11-21 09:00:00 11.5 0 Calma 7 Noroeste 1.6 1007 0.6 97
2019-11-21 08:00:00 11.2 2 Oeste 6 Noroeste 0 1006.8 0.2 97
2019-11-21 07:00:00 11 3 Noroeste 11 Oeste 0 1006.5 -0.6 97
2019-11-21 06:00:00 10.9 6 Oeste 9 Oeste 0.2 1006.4 -0.8 97
2019-11-21 05:00:00 11.4 4 Noroeste 9 Noroeste 0.1 1006.6 -0.5 98
2019-11-21 04:00:00 10.7 0 Calma 9 Oeste 0 1007.1 -0.5 98
2019-11-21 03:00:00 10.5 4 Oeste 8 Sudoeste 0 1007.2 -0.4 97
2019-11-21 02:00:00 11.1 2 Oeste 6 Oeste 0 1007.1 -0.7 95
2019-11-21 01:00:00 12 0 Calma 5 Nordeste 0 1007.6 0 93
2019-11-21 00:00:00 12.6 6 Este 9 Nordeste 0 1007.6 0.3 92
2019-11-20 23:00:00 13 5 Este 11 Este 0 1007.8 0.7 92
2019-11-20 22:00:00 12.9 6 Este 10 Este 0 1007.6 0.7 92
2019-11-20 21:00:00 12.6 7 Este 12 Sudeste 0 1007.3 0.8 92
2019-11-20 20:00:00 12.8 8 Sudeste 17 Sudeste 0 1007.1 0.3 91
2019-11-20 19:00:00 12.9 7 Sudeste 12 Sudeste 0 1006.9 0.1 91
2019-11-20 18:00:00 12.9 10 Este 14 Sudeste 0 1006.5 -0.3 91
2019-11-20 17:00:00 13.2 5 Este 11 Este 0 1006.8 -0.9 89
2019-11-20 16:00:00 13.1 7 Sudeste 13 Este 0 1006.8 -1.7 89
2019-11-20 15:00:00 12.7 7 Este 12 Sudeste 0 1006.8 -2.4 91
2019-11-20 14:00:00 12.5 6 Este 16 Este 0.1 1007.7 -1.4 91
2019-11-20 13:00:00 12 0 Calma 11 Oeste 1 1008.5 -0.8 88
2019-11-20 12:00:00 11.7 8 Oeste 14 Oeste 0.2 1009.2 0.2 80
2019-11-20 11:00:00 12.1 9 Oeste 13 Sudoeste 0 1009.1 0.4 68
2019-11-20 10:00:00 11 4 Oeste 13 Sudoeste 0 1009.3 0.7 74
2019-11-20 09:00:00 8.5 5 Oeste 9 Oeste 0 1009 0.6 82
2019-11-20 08:00:00 7.7 0 Calma 0 Calma 0 1008.7 0.1 80
2019-11-20 07:00:00 8.3 0 Calma 4 Oeste 0 1008.6 -0.5 77
2019-11-20 06:00:00 9.2 3 Oeste 8 Oeste 0 1008.4 -0.9 74
2019-11-20 05:00:00 10.6 0 Calma 6 Nordeste 0 1008.6 -1.1 68
2019-11-20 04:00:00 11.6 0 Calma 7 Sudoeste 0 1009.1 -0.8 67
2019-11-20 03:00:00 12 0 Calma 5 Noroeste 0 1009.3 -0.9 65
2019-11-20 02:00:00 12 3 Oeste 8 Oeste 0 1009.7 -0.9 65
2019-11-20 01:00:00 13.1 0 Calma 10 Noroeste 0 1009.9 -0.9 59
2019-11-20 00:00:00 13.4 5 Oeste 9 Noroeste 0 1010.2 -0.6 59
2019-11-19 23:00:00 13.4 4 Oeste 7 Noroeste 0 1010.6 -0.2 65
2019-11-19 22:00:00 13.1 2 Noroeste 5 Oeste 0 1010.8 0.2 62
2019-11-19 21:00:00 13.7 0 Calma 6 Oeste 0 1010.8 0.5 62
2019-11-19 20:00:00 13.8 0 Calma 9 Nordeste 0 1010.8 0.7 59
2019-11-19 19:00:00 14.2 5 Este 17 Nordeste 0 1010.6 0.4 65
2019-11-19 18:00:00 14.9 11 Nordeste 16 Nordeste 0 1010.3 0.2 61
2019-11-19 17:00:00 16.3 9 Este 15 Nordeste 0 1010.1 -0.8 49
2019-11-19 16:00:00 18 8 Este 22 Sur 0 1010.2 -1.6 41
2019-11-19 15:00:00 19.8 9 Sur 24 Sudeste 0 1010.1 -3.1 41
2019-11-19 14:00:00 19.8 9 Sudoeste 21 Oeste 0 1010.9 -3 37
2019-11-19 13:00:00 19.1 8 Oeste 14 Oeste 0 1011.8 -2.4 41
2019-11-19 12:00:00 17.2 8 Oeste 16 Oeste 0 1013.2 -0.8 46
2019-11-19 11:00:00 15.4 11 Oeste 18 Oeste 0 1013.9 0.3 58
2019-11-19 10:00:00 12.6 5 Noroeste 13 Noroeste 0 1014.2 0.9 62
2019-11-19 09:00:00 9.6 8 Oeste 13 Oeste 0 1014 1.1 74
2019-11-19 08:00:00 9.9 5 Oeste 12 Noroeste 0 1013.6 0.8 73
2019-11-19 07:00:00 10.4 6 Noroeste 14 Noroeste 0 1013.3 0.6 73
2019-11-19 06:00:00 10.6 6 Noroeste 16 Noroeste 0 1012.9 0.3 71
2019-11-19 05:00:00 11.5 11 Noroeste 18 Noroeste 0 1012.8 -0.2 70
2019-11-19 04:00:00 11 10 Oeste 19 Oeste 0 1012.7 -0.6 70
2019-11-19 03:00:00 11.2 11 Noroeste 19 Oeste 0 1012.6 -0.3 68
2019-11-19 02:00:00 10.6 10 Oeste 19 Oeste 0 1013 0 68
2019-11-19 01:00:00 11.2 12 Oeste 19 Oeste 0 1013.3 1.1 67
2019-11-19 00:00:00 12.2 15 Oeste 23 Noroeste 0 1012.9 1 64
2019-11-18 23:00:00 12.5 14 Oeste 26 Oeste 0 1013 1.7 64
2019-11-18 22:00:00 13 10 Oeste 27 Oeste 0 1012.2 1.8 59
2019-11-18 21:00:00 12.9 11 Sudoeste 19 Sudoeste 0 1011.9 1.8 59
2019-11-18 20:00:00 14.2 8 Noroeste 26 Oeste 0 1011.3 1.6 55
2019-11-18 19:00:00 14.6 11 Noroeste 31 Oeste 0 1010.4 1 55
2019-11-18 18:00:00 15.4 15 Noroeste 28 Oeste 0 1010.1 1 52
2019-11-18 17:00:00 16.5 13 Noroeste 28 Noroeste 0 1009.7 0.3 47
2019-11-18 16:00:00 17.2 11 Noroeste 33 Oeste 0 1009.4 -0.1 46
2019-11-18 15:00:00 16.9 12 Norte 31 Noroeste 0 1009.1 -0.3 47
2019-11-18 14:00:00 16.4 14 Noroeste 32 Noroeste 0 1009.4 -0.2 50
2019-11-18 13:00:00 15.7 13 Noroeste 31 Norte 0 1009.5 0.8 53
2019-11-18 12:00:00 15.5 9 Noroeste 35 Noroeste 0 1009.4 1.8 58
2019-11-18 11:00:00 14.4 14 Noroeste 32 Noroeste 0 1009.6 2.8 59
2019-11-18 10:00:00 13.2 14 Noroeste 40 Noroeste 0 1008.7 2.4 64
2019-11-18 09:00:00 12.6 19 Noroeste 42 Noroeste 0 1007.6 2.3 67
2019-11-18 08:00:00 13.3 14 Noroeste 31 Noroeste 0 1006.8 2 70
2019-11-18 07:00:00 14.6 14 Oeste 32 Oeste 0 1006.3 1.1 71
2019-11-18 06:00:00 15.6 19 Oeste 37 Noroeste 0 1005.3 -0.7 74
2019-11-18 05:00:00 13.4 0 Calma 10 Noroeste 0 1004.8 -2.4 88
2019-11-18 04:00:00 13.2 5 Nordeste 11 Sudoeste 0 1005.2 -2.7 86
2019-11-18 03:00:00 13.6 0 Calma 5 Noroeste 0 1006 -2.8 83
2019-11-18 02:00:00 13.4 0 Calma 9 Oeste 0 1007.2 -2.2 79
2019-11-18 01:00:00 13.9 4 Norte 9 Norte 0 1007.9 -2 79
2019-11-18 00:00:00 13 4 Oeste 9 Oeste 0 1008.8 -1.6 77
2019-11-17 23:00:00 13.4 0 Calma 12 Oeste 0 1009.4 -1.5 76
2019-11-17 22:00:00 14.3 6 Nordeste 13 Nordeste 0 1009.9 -1.2 76
2019-11-17 21:00:00 14.1 4 Este 7 Este 0 1010.4 -0.6 71
2019-11-17 20:00:00 13.9 3 Sudoeste 8 Nordeste 0 1010.9 -0.4 68
2019-11-17 19:00:00 15.1 3 Este 7 Sudeste 0 1011.1 -0.3 67
2019-11-17 18:00:00 16.5 4 Este 9 Este 0 1011 -1 58
2019-11-17 17:00:00 17.4 5 Sudeste 10 Sudeste 0 1011.3 -1.4 52
2019-11-17 16:00:00 18.2 5 Sudeste 9 Sudeste 0 1011.4 -2.3 50
2019-11-17 15:00:00 16.7 4 Sudeste 9 Sudeste 0 1012 -2.5 55
2019-11-17 14:00:00 16.1 0 Calma 13 Oeste 0 1012.7 -1.9 53
2019-11-17 13:00:00 16 5 Noroeste 18 Norte 0 1013.7 -1.3 53
2019-11-17 12:00:00 15.9 7 Noroeste 20 Noroeste 0 1014.5 -0.3 49
2019-11-17 11:00:00 15.8 10 Noroeste 23 Noroeste 0 1014.6 0.3 46
2019-11-17 10:00:00 13.2 12 Oeste 19 Sudoeste 0 1015 0.9 53
2019-11-17 09:00:00 11.9 4 Noroeste 18 Oeste 0 1014.8 0.9 56
2019-11-17 08:00:00 11.3 8 Noroeste 19 Noroeste 0 1014.3 0.3 56
2019-11-17 07:00:00 11.1 8 Norte 22 Noroeste 0 1014.1 -0.2 56
2019-11-17 06:00:00 10.1 8 Noroeste 19 Norte 0 1013.9 -0.4 59
2019-11-17 05:00:00 9.6 8 Noroeste 17 Noroeste 0 1014 -0.3 59
2019-11-17 04:00:00 9.5 8 Noroeste 18 Noroeste 0 1014.3 -0.1 59
2019-11-17 03:00:00 10 5 Noroeste 14 Noroeste 0 1014.3 0 58
2019-11-17 02:00:00 10.4 4 Noroeste 14 Noroeste 0 1014.3 0 56
2019-11-17 01:00:00 11 6 Noroeste 22 Noroeste 0 1014.4 0.4 53
2019-11-17 00:00:00 11.4 8 Noroeste 19 Noroeste 0 1014.3 0.7 50
2019-11-16 23:00:00 11.9 9 Noroeste 25 Noroeste 0 1014.3 1.2 49
2019-11-16 22:00:00 12 16 Oeste 23 Noroeste 0 1014 1.2 49
2019-11-16 21:00:00 11.8 6 Noroeste 19 Noroeste 0 1013.6 1.6 48
2019-11-16 20:00:00 12.7 9 Noroeste 27 Noroeste 0 1013.1 1.5 45
2019-11-16 19:00:00 13.5 13 Noroeste 28 Noroeste 0 1012.8 2.2 43
2019-11-16 18:00:00 14.4 12 Noroeste 29 Noroeste 0 1012 1.5 41
2019-11-16 17:00:00 15.6 16 Noroeste 29 Noroeste 0 1011.6 1 38
2019-11-16 16:00:00 16.5 13 Noroeste 29 Oeste 0 1010.6 -0.1 38
2019-11-16 15:00:00 16.1 15 Oeste 30 Noroeste 0 1010.5 -0.7 41
2019-11-16 14:00:00 15.8 14 Oeste 30 Oeste 0 1010.6 -0.6 42
2019-11-16 13:00:00 15 18 Oeste 32 Oeste 0 1010.7 -0.1 44
2019-11-16 12:00:00 14.2 18 Oeste 33 Oeste 0 1011.2 1.3 47
2019-11-16 11:00:00 13.1 19 Oeste 29 Oeste 0 1011.2 2.4 50
2019-11-16 10:00:00 11.6 15 Oeste 22 Noroeste 0 1010.8 3.1 55
2019-11-16 09:00:00 9.1 8 Noroeste 18 Oeste 0 1009.9 2.8 60
2019-11-16 08:00:00 7.6 4 Noroeste 13 Noroeste 0 1008.8 2 64
2019-11-16 07:00:00 7.7 3 Noroeste 17 Noroeste 0 1007.7 1.4 64
2019-11-16 06:00:00 8.6 9 Noroeste 17 Oeste 0 1007.1 1.2 62
2019-11-16 05:00:00 8.3 11 Oeste 17 Oeste 0 1006.8 1 64
2019-11-16 04:00:00 9 5 Oeste 13 Noroeste 0 1006.3 0.6 61
2019-11-16 03:00:00 9.8 6 Oeste 12 Noroeste 0 1005.9 0.5 61
2019-11-16 02:00:00 8.7 0 Calma 7 Oeste 0 1005.8 0.5 65
2019-11-16 01:00:00 8.3 4 Oeste 13 Oeste 0 1005.7 1 65
2019-11-16 00:00:00 9.7 2 Norte 12 Norte 0 1005.4 1 59
2019-11-15 23:00:00 9.9 4 Noroeste 13 Noroeste 0 1005.3 1 59
2019-11-15 22:00:00 9.7 6 Oeste 12 Oeste 0 1004.7 1 59
2019-11-15 21:00:00 10.7 3 Norte 17 Noroeste 0 1004.4 1 58
2019-11-15 20:00:00 11.4 5 Oeste 15 Noroeste 0 1004.3 1.2 56
2019-11-15 19:00:00 11.7 5 Noroeste 15 Norte 0 1003.7 1.5 58
2019-11-15 18:00:00 11.7 8 Norte 25 Norte 0 1003.4 0.9 55
2019-11-15 17:00:00 13.3 12 Noroeste 30 Noroeste 0 1003.1 0.1 44
2019-11-15 16:00:00 15.4 8 Noroeste 35 Oeste 0 1002.2 -1.2 40
2019-11-15 15:00:00 15.2 12 Oeste 31 Noroeste 0 1002.5 -1.9 41
2019-11-15 14:00:00 14.9 12 Noroeste 32 Noroeste 0 1003 -1.2 41
2019-11-15 13:00:00 14 15 Noroeste 36 Oeste 0 1003.4 -0.4 49
2019-11-15 12:00:00 14 8 Noroeste 27 Norte 0 1004.4 0.7 53
2019-11-15 11:00:00 13.5 6 Noroeste 33 Norte 0 1004.2 0.7 55
2019-11-15 10:00:00 11.7 14 Noroeste 32 Noroeste 0 1003.8 0.4 59
2019-11-15 09:00:00 9.9 10 Noroeste 26 Noroeste 0 1003.7 0.2 65
2019-11-15 08:00:00 9.5 8 Noroeste 21 Noroeste 0 1003.5 0 64
2019-11-15 07:00:00 10.3 14 Oeste 26 Oeste 0 1003.4 -0.5 61
2019-11-15 06:00:00 10.8 10 Oeste 27 Noroeste 0 1003.5 -0.4 62
2019-11-15 05:00:00 11.1 8 Noroeste 27 Noroeste 0 1003.5 -0.6 62
2019-11-15 04:00:00 11.5 6 Noroeste 17 Norte 0 1003.9 -0.3 62
2019-11-15 03:00:00 11.8 6 Norte 16 Norte 0 1003.9 -0.7 62
2019-11-15 02:00:00 12.3 7 Noroeste 27 Norte 0 1004.1 -0.2 62
2019-11-15 01:00:00 12 8 Noroeste 17 Norte 0 1004.2 -0.2 65
2019-11-15 00:00:00 12.3 6 Norte 21 Oeste 0 1004.6 0 64
2019-11-14 23:00:00 12.8 11 Noroeste 25 Noroeste 0 1004.3 0.3 62
2019-11-14 22:00:00 12.8 9 Noroeste 25 Noroeste 0 1004.4 0.1 62
2019-11-14 21:00:00 13.1 6 Norte 19 Norte 0 1004.6 1.6 64
2019-11-14 20:00:00 13 8 Norte 24 Noroeste 0 1004 1.8 64
2019-11-14 19:00:00 13.6 7 Noroeste 34 Noroeste 0 1004.3 1.7 62
2019-11-14 18:00:00 14 9 Noroeste 36 Oeste 0.1 1003 -0.1 62
2019-11-14 17:00:00 14 17 Noroeste 47 Noroeste 0 1002.2 -1 65
2019-11-14 16:00:00 13.4 22 Oeste 42 Noroeste 0.1 1002.6 -0.8 73
2019-11-14 15:00:00 13.8 14 Noroeste 39 Noroeste 0.1 1003.1 -1.6 76
2019-11-14 14:00:00 14.1 13 Noroeste 38 Noroeste 0.4 1003.2 -2.3 85
2019-11-14 13:00:00 17.2 6 Noroeste 33 Oeste 0 1003.4 -2.6 56
2019-11-14 12:00:00 17.5 17 Noroeste 30 Oeste 0 1004.7 -2 55
2019-11-14 11:00:00 17 9 Noroeste 32 Noroeste 0 1005.5 -0.7 58
2019-11-14 10:00:00 17.1 8 Oeste 25 Noroeste 0 1006 0.6 58
2019-11-14 09:00:00 15.8 6 Sudoeste 34 Oeste 0 1006.7 0.7 61
2019-11-14 08:00:00 14.2 17 Noroeste 39 Noroeste 0 1006.2 0 64
2019-11-14 07:00:00 15.1 15 Noroeste 30 Oeste 0 1005.4 -1.7 70
2019-11-14 06:00:00 11.9 9 Oeste 13 Sudoeste 0 1006 -2.1 82
2019-11-14 05:00:00 13.3 5 Oeste 10 Oeste 0 1006.2 -2.3 81
2019-11-14 04:00:00 13.3 5 Oeste 10 Sudoeste 0 1007.1 -1.7 79
2019-11-14 03:00:00 14 5 Oeste 13 Oeste 0 1008.1 -1.2 76
2019-11-14 02:00:00 15.2 2 Oeste 10 Oeste 0 1008.5 -1.4 71
2019-11-14 01:00:00 17.2 3 Noroeste 20 Norte 0 1008.8 -0.4 62
2019-11-14 00:00:00 18.5 9 Noroeste 27 Noroeste 0 1009.3 0.3 59
2019-11-13 23:00:00 18.9 12 Noroeste 32 Oeste 0 1009.9 0.7 58
2019-11-13 22:00:00 18.6 15 Oeste 27 Noroeste 0 1009.2 0.6 59
2019-11-13 21:00:00 18.9 17 Oeste 37 Oeste 0 1009 1 59
2019-11-13 20:00:00 19.2 18 Oeste 37 Oeste 0 1009.2 1.3 59
2019-11-13 19:00:00 19.8 19 Noroeste 42 Noroeste 0 1008.6 0.3 58
2019-11-13 18:00:00 20.3 10 Noroeste 33 Noroeste 0 1008 -0.3 56
2019-11-13 17:00:00 20.9 12 Norte 36 Norte 0 1007.9 -0.6 58
2019-11-13 16:00:00 21.3 13 Noroeste 36 Noroeste 0 1008.3 -0.9 58
2019-11-13 15:00:00 20.9 9 Noroeste 31 Norte 0 1008.3 -1.3 59
2019-11-13 14:00:00 21.6 17 Noroeste 34 Noroeste 0 1008.5 -1.3 56
2019-11-13 13:00:00 21.1 15 Noroeste 37 Noroeste 0 1009.2 0.1 56
2019-11-13 12:00:00 20.8 14 Noroeste 39 Noroeste 0 1009.6 0.8 58
2019-11-13 11:00:00 18 12 Noroeste 30 Noroeste 0 1009.8 1.7 65
2019-11-13 10:00:00 17.4 9 Noroeste 23 Oeste 0 1009.1 0.8 67
2019-11-13 09:00:00 16.8 9 Noroeste 32 Norte 0 1008.8 0.5 68
2019-11-13 08:00:00 16.2 14 Noroeste 32 Oeste 0 1008.1 -0.5 70
2019-11-13 07:00:00 16.4 11 Oeste 36 Oeste 0 1008.3 -0.6 67
2019-11-13 06:00:00 16.7 13 Oeste 28 Noroeste 0 1008.3 -1.1 62
2019-11-13 05:00:00 16.2 10 Noroeste 27 Oeste 0 1008.6 -1.1 61
2019-11-13 04:00:00 16.3 10 Oeste 21 Noroeste 0 1008.9 -0.8 59
2019-11-13 03:00:00 16.3 12 Oeste 27 Noroeste 0 1009.4 -0.6 56
2019-11-13 02:00:00 15.7 9 Oeste 20 Oeste 0 1009.7 -0.1 53
2019-11-13 01:00:00 15.5 3 Oeste 31 Noroeste 0 1009.7 0.2 52
2019-11-13 00:00:00 16.2 9 Noroeste 25 Oeste 0 1010 0.4 50
2019-11-12 23:00:00 16.5 11 Oeste 30 Oeste 0 1009.8 0.4 47
2019-11-12 22:00:00 17 15 Oeste 28 Noroeste 0 1009.5 0.5 46
2019-11-12 21:00:00 16.7 13 Oeste 26 Noroeste 0 1009.6 0.8 52
2019-11-12 20:00:00 16.6 13 Oeste 21 Noroeste 0 1009.4 0.9 53
2019-11-12 19:00:00 16.8 7 Noroeste 37 Noroeste 0 1009 0.7 55
2019-11-12 18:00:00 17.5 18 Noroeste 33 Noroeste 0 1008.8 0.5 50
2019-11-12 17:00:00 18.3 14 Noroeste 32 Oeste 0 1008.5 -0.4 50
2019-11-12 16:00:00 19.2 15 Noroeste 37 Noroeste 0 1008.3 -1.5 52
2019-11-12 15:00:00 20.2 10 Noroeste 31 Norte 0 1008.3 -1.9 49
2019-11-12 14:00:00 19.8 15 Noroeste 38 Noroeste 0 1008.9 -1.7 50
2019-11-12 13:00:00 19.2 17 Noroeste 35 Oeste 0 1009.8 -0.9 53
2019-11-12 12:00:00 18.5 14 Oeste 34 Oeste 0 1010.2 -0.1 59
2019-11-12 11:00:00 18 11 Noroeste 25 Noroeste 0 1010.6 0.5 62
2019-11-12 10:00:00 17.1 10 Noroeste 19 Noroeste 0 1010.7 1.6 68
2019-11-12 09:00:00 15.2 9 Oeste 16 Noroeste 0 1010.3 0.9 74
2019-11-12 08:00:00 14.3 8 Noroeste 17 Noroeste 0 1010.1 0.8 74
2019-11-12 07:00:00 15.2 6 Noroeste 25 Noroeste 0 1009.1 -0.5 71
2019-11-12 06:00:00 15.4 9 Noroeste 22 Norte 0 1009.4 -0.6 71
2019-11-12 05:00:00 15.6 5 Noroeste 22 Noroeste 0 1009.3 -1.1 71
2019-11-12 04:00:00 15.2 6 Noroeste 15 Noroeste 0 1009.6 -0.9 79
2019-11-12 03:00:00 14.5 0 Calma 8 Noroeste 0 1010 -1 82
2019-11-12 02:00:00 15.4 0 Calma 14 Noroeste 0 1010.4 -0.9 79
2019-11-12 01:00:00 15.6 6 Noroeste 17 Oeste 0 1010.5 -0.6 83
2019-11-12 00:00:00 15.4 10 Oeste 16 Oeste 0 1011 0 83